sensor_id;sensor_type;location;lat;lon;timestamp;P1;durP1;ratioP1;P2;durP2;ratioP2
69569;SDS011;56781;42.292;23.146;2024-03-02T00:01:56;24.80;;;11.23;;
69569;SDS011;56781;42.292;23.146;2024-03-02T00:04:25;23.33;;;9.55;;
69569;SDS011;56781;42.292;23.146;2024-03-02T00:06:53;25.10;;;10.82;;
69569;SDS011;56781;42.292;23.146;2024-03-02T00:09:22;24.63;;;10.50;;
69569;SDS011;56781;42.292;23.146;2024-03-02T00:11:53;26.02;;;12.02;;
69569;SDS011;56781;42.292;23.146;2024-03-02T00:14:21;24.87;;;10.50;;
69569;SDS011;56781;42.292;23.146;2024-03-02T00:16:51;24.35;;;10.48;;
69569;SDS011;56781;42.292;23.146;2024-03-02T00:19:20;36.35;;;12.75;;
69569;SDS011;56781;42.292;23.146;2024-03-02T00:21:48;26.60;;;9.65;;
69569;SDS011;56781;42.292;23.146;2024-03-02T00:24:21;21.10;;;10.38;;
69569;SDS011;56781;42.292;23.146;2024-03-02T00:26:56;26.97;;;11.43;;
69569;SDS011;56781;42.292;23.146;2024-03-02T00:29:25;22.42;;;10.20;;
69569;SDS011;56781;42.292;23.146;2024-03-02T00:31:54;24.05;;;10.88;;
69569;SDS011;56781;42.292;23.146;2024-03-02T00:34:22;23.13;;;9.70;;
69569;SDS011;56781;42.292;23.146;2024-03-02T00:36:51;26.23;;;11.13;;
69569;SDS011;56781;42.292;23.146;2024-03-02T00:39:20;25.77;;;10.40;;
69569;SDS011;56781;42.292;23.146;2024-03-02T00:41:49;25.35;;;10.55;;
69569;SDS011;56781;42.292;23.146;2024-03-02T00:44:19;27.98;;;11.40;;
69569;SDS011;56781;42.292;23.146;2024-03-02T00:46:52;25.13;;;11.13;;
69569;SDS011;56781;42.292;23.146;2024-03-02T00:49:22;32.35;;;12.90;;
69569;SDS011;56781;42.292;23.146;2024-03-02T00:51:53;20.87;;;9.17;;
69569;SDS011;56781;42.292;23.146;2024-03-02T00:54:23;19.50;;;8.13;;
69569;SDS011;56781;42.292;23.146;2024-03-02T00:56:53;18.77;;;7.68;;
69569;SDS011;56781;42.292;23.146;2024-03-02T00:59:24;19.02;;;8.38;;
69569;SDS011;56781;42.292;23.146;2024-03-02T01:01:53;22.50;;;8.75;;
69569;SDS011;56781;42.292;23.146;2024-03-02T01:04:21;21.30;;;8.47;;
69569;SDS011;56781;42.292;23.146;2024-03-02T01:06:50;20.65;;;9.73;;
69569;SDS011;56781;42.292;23.146;2024-03-02T01:09:19;22.73;;;10.43;;
69569;SDS011;56781;42.292;23.146;2024-03-02T01:11:47;23.13;;;10.80;;
69569;SDS011;56781;42.292;23.146;2024-03-02T01:14:16;29.52;;;12.75;;
69569;SDS011;56781;42.292;23.146;2024-03-02T01:16:46;32.77;;;12.80;;
69569;SDS011;56781;42.292;23.146;2024-03-02T01:19:15;30.75;;;12.90;;
69569;SDS011;56781;42.292;23.146;2024-03-02T01:21:44;34.42;;;14.57;;
69569;SDS011;56781;42.292;23.146;2024-03-02T01:24:12;32.03;;;13.55;;
69569;SDS011;56781;42.292;23.146;2024-03-02T01:26:41;35.47;;;14.13;;
69569;SDS011;56781;42.292;23.146;2024-03-02T01:29:09;32.07;;;14.07;;
69569;SDS011;56781;42.292;23.146;2024-03-02T01:31:38;30.58;;;14.13;;
69569;SDS011;56781;42.292;23.146;2024-03-02T01:34:10;31.67;;;13.82;;
69569;SDS011;56781;42.292;23.146;2024-03-02T01:36:39;35.78;;;13.55;;
69569;SDS011;56781;42.292;23.146;2024-03-02T01:39:08;33.47;;;13.10;;
69569;SDS011;56781;42.292;23.146;2024-03-02T01:41:37;32.07;;;13.60;;
69569;SDS011;56781;42.292;23.146;2024-03-02T01:44:05;33.97;;;13.05;;
69569;SDS011;56781;42.292;23.146;2024-03-02T01:46:34;33.17;;;13.82;;
69569;SDS011;56781;42.292;23.146;2024-03-02T01:49:02;33.35;;;13.80;;
69569;SDS011;56781;42.292;23.146;2024-03-02T01:51:32;33.97;;;13.88;;
69569;SDS011;56781;42.292;23.146;2024-03-02T01:54:01;34.33;;;12.83;;
69569;SDS011;56781;42.292;23.146;2024-03-02T01:56:29;32.47;;;13.27;;
69569;SDS011;56781;42.292;23.146;2024-03-02T01:58:57;28.27;;;12.10;;
69569;SDS011;56781;42.292;23.146;2024-03-02T02:01:26;29.52;;;11.88;;
69569;SDS011;56781;42.292;23.146;2024-03-02T02:03:55;25.35;;;11.10;;
69569;SDS011;56781;42.292;23.146;2024-03-02T02:06:23;25.47;;;11.37;;
69569;SDS011;56781;42.292;23.146;2024-03-02T02:08:54;25.58;;;11.07;;
69569;SDS011;56781;42.292;23.146;2024-03-02T02:11:24;26.58;;;11.82;;
69569;SDS011;56781;42.292;23.146;2024-03-02T02:13:52;26.05;;;11.32;;
69569;SDS011;56781;42.292;23.146;2024-03-02T02:16:22;24.27;;;10.85;;
69569;SDS011;56781;42.292;23.146;2024-03-02T02:18:50;28.37;;;11.40;;
69569;SDS011;56781;42.292;23.146;2024-03-02T02:21:24;26.02;;;11.50;;
69569;SDS011;56781;42.292;23.146;2024-03-02T02:23:52;26.25;;;11.75;;
69569;SDS011;56781;42.292;23.146;2024-03-02T02:26:21;25.98;;;10.45;;
69569;SDS011;56781;42.292;23.146;2024-03-02T02:28:49;24.45;;;10.20;;
69569;SDS011;56781;42.292;23.146;2024-03-02T02:31:18;23.80;;;10.40;;
69569;SDS011;56781;42.292;23.146;2024-03-02T02:33:46;21.38;;;9.68;;
69569;SDS011;56781;42.292;23.146;2024-03-02T02:36:15;21.60;;;9.27;;
69569;SDS011;56781;42.292;23.146;2024-03-02T02:38:46;23.23;;;10.77;;
69569;SDS011;56781;42.292;23.146;2024-03-02T02:41:17;23.35;;;11.13;;
69569;SDS011;56781;42.292;23.146;2024-03-02T02:43:45;26.90;;;11.63;;
69569;SDS011;56781;42.292;23.146;2024-03-02T02:46:13;35.03;;;14.45;;
69569;SDS011;56781;42.292;23.146;2024-03-02T02:48:42;30.35;;;13.75;;
69569;SDS011;56781;42.292;23.146;2024-03-02T02:51:10;29.90;;;13.27;;
69569;SDS011;56781;42.292;23.146;2024-03-02T02:53:39;27.23;;;12.35;;
69569;SDS011;56781;42.292;23.146;2024-03-02T02:56:10;28.33;;;12.53;;
69569;SDS011;56781;42.292;23.146;2024-03-02T02:58:39;30.52;;;12.60;;
69569;SDS011;56781;42.292;23.146;2024-03-02T03:01:08;28.17;;;12.73;;
69569;SDS011;56781;42.292;23.146;2024-03-02T03:03:37;32.97;;;13.40;;
69569;SDS011;56781;42.292;23.146;2024-03-02T03:06:06;32.65;;;13.93;;
69569;SDS011;56781;42.292;23.146;2024-03-02T03:08:34;34.57;;;14.57;;
69569;SDS011;56781;42.292;23.146;2024-03-02T03:11:03;31.95;;;13.80;;
69569;SDS011;56781;42.292;23.146;2024-03-02T03:13:33;35.42;;;15.07;;
69569;SDS011;56781;42.292;23.146;2024-03-02T03:16:03;33.45;;;14.30;;
69569;SDS011;56781;42.292;23.146;2024-03-02T03:18:32;32.92;;;14.02;;
69569;SDS011;56781;42.292;23.146;2024-03-02T03:21:01;32.93;;;13.47;;
69569;SDS011;56781;42.292;23.146;2024-03-02T03:23:29;33.95;;;13.43;;
69569;SDS011;56781;42.292;23.146;2024-03-02T03:25:58;34.28;;;13.68;;
69569;SDS011;56781;42.292;23.146;2024-03-02T03:28:27;29.75;;;12.48;;
69569;SDS011;56781;42.292;23.146;2024-03-02T03:30:57;27.92;;;12.85;;
69569;SDS011;56781;42.292;23.146;2024-03-02T03:33:26;30.20;;;12.40;;
69569;SDS011;56781;42.292;23.146;2024-03-02T03:35:54;30.60;;;12.68;;
69569;SDS011;56781;42.292;23.146;2024-03-02T03:38:23;33.40;;;13.32;;
69569;SDS011;56781;42.292;23.146;2024-03-02T03:40:51;42.13;;;16.75;;
69569;SDS011;56781;42.292;23.146;2024-03-02T03:43:20;47.67;;;18.77;;
69569;SDS011;56781;42.292;23.146;2024-03-02T03:45:48;33.83;;;14.17;;
69569;SDS011;56781;42.292;23.146;2024-03-02T03:48:19;30.98;;;12.52;;
69569;SDS011;56781;42.292;23.146;2024-03-02T03:50:47;29.42;;;12.13;;
69569;SDS011;56781;42.292;23.146;2024-03-02T03:53:15;30.83;;;11.55;;
69569;SDS011;56781;42.292;23.146;2024-03-02T03:55:44;28.73;;;12.25;;
69569;SDS011;56781;42.292;23.146;2024-03-02T03:58:13;31.27;;;12.57;;
69569;SDS011;56781;42.292;23.146;2024-03-02T04:00:47;33.72;;;13.40;;
69569;SDS011;56781;42.292;23.146;2024-03-02T04:03:15;33.33;;;14.20;;
69569;SDS011;56781;42.292;23.146;2024-03-02T04:05:45;31.77;;;13.00;;
69569;SDS011;56781;42.292;23.146;2024-03-02T04:08:13;33.00;;;13.25;;
69569;SDS011;56781;42.292;23.146;2024-03-02T04:10:42;38.67;;;14.33;;
69569;SDS011;56781;42.292;23.146;2024-03-02T04:13:11;38.45;;;14.40;;
69569;SDS011;56781;42.292;23.146;2024-03-02T04:15:39;33.00;;;14.15;;
69569;SDS011;56781;42.292;23.146;2024-03-02T04:18:08;34.83;;;15.25;;
69569;SDS011;56781;42.292;23.146;2024-03-02T04:20:37;33.90;;;14.68;;
69569;SDS011;56781;42.292;23.146;2024-03-02T04:23:07;36.13;;;13.97;;
69569;SDS011;56781;42.292;23.146;2024-03-02T04:25:35;38.97;;;15.48;;
69569;SDS011;56781;42.292;23.146;2024-03-02T04:28:03;37.80;;;14.38;;
69569;SDS011;56781;42.292;23.146;2024-03-02T04:30:32;37.85;;;14.55;;
69569;SDS011;56781;42.292;23.146;2024-03-02T04:33:01;40.97;;;16.42;;
69569;SDS011;56781;42.292;23.146;2024-03-02T04:35:30;37.03;;;14.67;;
69569;SDS011;56781;42.292;23.146;2024-03-02T04:37:59;37.88;;;14.70;;
69569;SDS011;56781;42.292;23.146;2024-03-02T04:40:29;37.88;;;15.57;;
69569;SDS011;56781;42.292;23.146;2024-03-02T04:42:58;35.55;;;13.27;;
69569;SDS011;56781;42.292;23.146;2024-03-02T04:45:27;36.97;;;14.35;;
69569;SDS011;56781;42.292;23.146;2024-03-02T04:47:55;33.57;;;13.23;;
69569;SDS011;56781;42.292;23.146;2024-03-02T04:50:24;29.20;;;12.52;;
69569;SDS011;56781;42.292;23.146;2024-03-02T04:52:53;26.90;;;11.77;;
69569;SDS011;56781;42.292;23.146;2024-03-02T04:55:21;27.98;;;11.65;;
69569;SDS011;56781;42.292;23.146;2024-03-02T04:58:18;28.80;;;12.10;;
69569;SDS011;56781;42.292;23.146;2024-03-02T05:00:47;29.33;;;12.17;;
69569;SDS011;56781;42.292;23.146;2024-03-02T05:03:16;30.45;;;12.85;;
69569;SDS011;56781;42.292;23.146;2024-03-02T05:05:44;35.75;;;13.75;;
69569;SDS011;56781;42.292;23.146;2024-03-02T05:08:13;35.45;;;13.68;;
69569;SDS011;56781;42.292;23.146;2024-03-02T05:10:43;32.55;;;14.13;;
69569;SDS011;56781;42.292;23.146;2024-03-02T05:13:11;34.47;;;14.43;;
69569;SDS011;56781;42.292;23.146;2024-03-02T05:15:41;44.03;;;18.23;;
69569;SDS011;56781;42.292;23.146;2024-03-02T05:18:10;40.05;;;17.60;;
69569;SDS011;56781;42.292;23.146;2024-03-02T05:20:38;42.28;;;19.20;;
69569;SDS011;56781;42.292;23.146;2024-03-02T05:23:07;43.30;;;18.60;;
69569;SDS011;56781;42.292;23.146;2024-03-02T05:25:35;40.03;;;18.23;;
69569;SDS011;56781;42.292;23.146;2024-03-02T05:28:04;40.10;;;17.83;;
69569;SDS011;56781;42.292;23.146;2024-03-02T05:30:33;55.17;;;21.55;;
69569;SDS011;56781;42.292;23.146;2024-03-02T05:33:04;45.20;;;19.40;;
69569;SDS011;56781;42.292;23.146;2024-03-02T05:35:33;47.45;;;20.50;;
69569;SDS011;56781;42.292;23.146;2024-03-02T05:38:01;40.57;;;18.47;;
69569;SDS011;56781;42.292;23.146;2024-03-02T05:40:30;43.78;;;18.15;;
69569;SDS011;56781;42.292;23.146;2024-03-02T05:42:58;44.35;;;19.25;;
69569;SDS011;56781;42.292;23.146;2024-03-02T05:45:27;43.05;;;19.05;;
69569;SDS011;56781;42.292;23.146;2024-03-02T05:47:56;42.95;;;18.50;;
69569;SDS011;56781;42.292;23.146;2024-03-02T05:50:26;46.67;;;20.33;;
69569;SDS011;56781;42.292;23.146;2024-03-02T05:52:55;50.53;;;22.48;;
69569;SDS011;56781;42.292;23.146;2024-03-02T05:55:23;48.72;;;20.27;;
69569;SDS011;56781;42.292;23.146;2024-03-02T05:57:52;43.47;;;18.45;;
69569;SDS011;56781;42.292;23.146;2024-03-02T06:00:38;42.90;;;17.92;;
69569;SDS011;56781;42.292;23.146;2024-03-02T06:03:07;40.77;;;17.70;;
69569;SDS011;56781;42.292;23.146;2024-03-02T06:05:37;41.50;;;17.35;;
69569;SDS011;56781;42.292;23.146;2024-03-02T06:08:07;37.53;;;16.80;;
69569;SDS011;56781;42.292;23.146;2024-03-02T06:10:36;36.65;;;16.15;;
69569;SDS011;56781;42.292;23.146;2024-03-02T06:13:04;38.85;;;16.15;;
69569;SDS011;56781;42.292;23.146;2024-03-02T06:15:34;39.97;;;17.50;;
69569;SDS011;56781;42.292;23.146;2024-03-02T06:18:03;79.22;;;27.75;;
69569;SDS011;56781;42.292;23.146;2024-03-02T06:20:33;67.88;;;26.67;;
69569;SDS011;56781;42.292;23.146;2024-03-02T06:23:04;55.58;;;25.40;;
69569;SDS011;56781;42.292;23.146;2024-03-02T06:25:33;46.60;;;21.08;;
69569;SDS011;56781;42.292;23.146;2024-03-02T06:28:01;56.23;;;28.50;;
69569;SDS011;56781;42.292;23.146;2024-03-02T06:30:31;39.47;;;16.58;;
69569;SDS011;56781;42.292;23.146;2024-03-02T06:33:00;33.30;;;15.43;;
69569;SDS011;56781;42.292;23.146;2024-03-02T06:35:28;31.23;;;13.95;;
69569;SDS011;56781;42.292;23.146;2024-03-02T06:37:57;38.30;;;15.88;;
69569;SDS011;56781;42.292;23.146;2024-03-02T06:40:27;38.77;;;16.60;;
69569;SDS011;56781;42.292;23.146;2024-03-02T06:42:56;37.40;;;15.85;;
69569;SDS011;56781;42.292;23.146;2024-03-02T06:45:24;40.90;;;17.73;;
69569;SDS011;56781;42.292;23.146;2024-03-02T06:47:53;43.30;;;17.35;;
69569;SDS011;56781;42.292;23.146;2024-03-02T06:50:22;49.00;;;20.58;;
69569;SDS011;56781;42.292;23.146;2024-03-02T06:52:50;44.60;;;19.30;;
69569;SDS011;56781;42.292;23.146;2024-03-02T06:55:19;46.60;;;18.83;;
69569;SDS011;56781;42.292;23.146;2024-03-02T06:57:49;40.00;;;17.70;;
69569;SDS011;56781;42.292;23.146;2024-03-02T07:00:18;37.58;;;15.38;;
69569;SDS011;56781;42.292;23.146;2024-03-02T07:02:47;32.90;;;14.68;;
69569;SDS011;56781;42.292;23.146;2024-03-02T07:05:16;38.37;;;16.40;;
69569;SDS011;56781;42.292;23.146;2024-03-02T07:07:44;40.85;;;17.50;;
69569;SDS011;56781;42.292;23.146;2024-03-02T07:10:13;32.88;;;14.30;;
69569;SDS011;56781;42.292;23.146;2024-03-02T07:12:42;33.38;;;13.23;;
69569;SDS011;56781;42.292;23.146;2024-03-02T07:15:13;34.25;;;14.45;;
69569;SDS011;56781;42.292;23.146;2024-03-02T07:18:11;36.87;;;16.03;;
69569;SDS011;56781;42.292;23.146;2024-03-02T07:20:39;31.77;;;14.55;;
69569;SDS011;56781;42.292;23.146;2024-03-02T07:23:10;32.20;;;14.15;;
69569;SDS011;56781;42.292;23.146;2024-03-02T07:25:38;29.38;;;13.45;;
69569;SDS011;56781;42.292;23.146;2024-03-02T07:28:10;28.92;;;13.63;;
69569;SDS011;56781;42.292;23.146;2024-03-02T07:30:40;33.40;;;14.63;;
69569;SDS011;56781;42.292;23.146;2024-03-02T07:33:09;33.67;;;14.57;;
69569;SDS011;56781;42.292;23.146;2024-03-02T07:35:37;29.90;;;12.95;;
69569;SDS011;56781;42.292;23.146;2024-03-02T07:38:06;32.08;;;14.68;;
69569;SDS011;56781;42.292;23.146;2024-03-02T07:40:35;26.00;;;11.70;;
69569;SDS011;56781;42.292;23.146;2024-03-02T07:43:03;32.27;;;13.37;;
69569;SDS011;56781;42.292;23.146;2024-03-02T07:45:32;28.23;;;13.43;;
69569;SDS011;56781;42.292;23.146;2024-03-02T07:48:04;30.33;;;13.35;;
69569;SDS011;56781;42.292;23.146;2024-03-02T07:50:33;29.65;;;14.23;;
69569;SDS011;56781;42.292;23.146;2024-03-02T07:53:01;25.95;;;13.43;;
69569;SDS011;56781;42.292;23.146;2024-03-02T07:55:30;30.93;;;16.10;;
69569;SDS011;56781;42.292;23.146;2024-03-02T07:57:59;29.42;;;15.05;;
69569;SDS011;56781;42.292;23.146;2024-03-02T08:00:28;29.80;;;14.65;;
69569;SDS011;56781;42.292;23.146;2024-03-02T08:02:57;28.52;;;12.80;;
69569;SDS011;56781;42.292;23.146;2024-03-02T08:05:27;25.80;;;11.73;;
69569;SDS011;56781;42.292;23.146;2024-03-02T08:07:55;24.13;;;11.63;;
69569;SDS011;56781;42.292;23.146;2024-03-02T08:10:24;33.53;;;15.02;;
69569;SDS011;56781;42.292;23.146;2024-03-02T08:12:52;21.60;;;10.23;;
69569;SDS011;56781;42.292;23.146;2024-03-02T08:15:21;19.98;;;9.95;;
69569;SDS011;56781;42.292;23.146;2024-03-02T08:17:50;32.90;;;15.13;;
69569;SDS011;56781;42.292;23.146;2024-03-02T08:20:19;32.73;;;15.57;;
69569;SDS011;56781;42.292;23.146;2024-03-02T08:22:49;25.95;;;12.43;;
69569;SDS011;56781;42.292;23.146;2024-03-02T08:25:18;25.70;;;12.00;;
69569;SDS011;56781;42.292;23.146;2024-03-02T08:27:46;20.65;;;9.50;;
69569;SDS011;56781;42.292;23.146;2024-03-02T08:30:15;23.13;;;10.68;;
69569;SDS011;56781;42.292;23.146;2024-03-02T08:32:45;25.63;;;12.53;;
69569;SDS011;56781;42.292;23.146;2024-03-02T08:35:14;26.23;;;13.25;;
69569;SDS011;56781;42.292;23.146;2024-03-02T08:37:43;34.08;;;16.08;;
69569;SDS011;56781;42.292;23.146;2024-03-02T08:40:13;31.95;;;14.82;;
69569;SDS011;56781;42.292;23.146;2024-03-02T08:42:44;38.95;;;16.40;;
69569;SDS011;56781;42.292;23.146;2024-03-02T08:45:14;26.97;;;13.03;;
69569;SDS011;56781;42.292;23.146;2024-03-02T08:47:43;19.48;;;9.85;;
69569;SDS011;56781;42.292;23.146;2024-03-02T08:50:12;22.45;;;11.40;;
69569;SDS011;56781;42.292;23.146;2024-03-02T08:52:40;26.25;;;13.85;;
69569;SDS011;56781;42.292;23.146;2024-03-02T08:55:11;24.80;;;13.02;;
69569;SDS011;56781;42.292;23.146;2024-03-02T08:57:41;25.63;;;11.90;;
69569;SDS011;56781;42.292;23.146;2024-03-02T09:00:10;26.67;;;13.57;;
69569;SDS011;56781;42.292;23.146;2024-03-02T09:02:39;24.50;;;11.85;;
69569;SDS011;56781;42.292;23.146;2024-03-02T09:05:07;23.23;;;10.32;;
69569;SDS011;56781;42.292;23.146;2024-03-02T09:07:36;26.20;;;12.82;;
69569;SDS011;56781;42.292;23.146;2024-03-02T09:10:05;32.67;;;15.87;;
69569;SDS011;56781;42.292;23.146;2024-03-02T09:12:35;23.95;;;11.68;;
69569;SDS011;56781;42.292;23.146;2024-03-02T09:15:07;24.92;;;11.80;;
69569;SDS011;56781;42.292;23.146;2024-03-02T09:17:36;22.75;;;10.00;;
69569;SDS011;56781;42.292;23.146;2024-03-02T09:20:05;18.50;;;9.07;;
69569;SDS011;56781;42.292;23.146;2024-03-02T09:22:34;20.60;;;9.43;;
69569;SDS011;56781;42.292;23.146;2024-03-02T09:25:03;20.55;;;9.90;;
69569;SDS011;56781;42.292;23.146;2024-03-02T09:27:35;18.33;;;9.23;;
69569;SDS011;56781;42.292;23.146;2024-03-02T09:30:05;22.60;;;10.32;;
69569;SDS011;56781;42.292;23.146;2024-03-02T09:32:40;23.20;;;12.13;;
69569;SDS011;56781;42.292;23.146;2024-03-02T09:35:09;23.37;;;10.50;;
69569;SDS011;56781;42.292;23.146;2024-03-02T09:37:38;27.10;;;14.52;;
69569;SDS011;56781;42.292;23.146;2024-03-02T09:40:07;27.65;;;13.85;;
69569;SDS011;56781;42.292;23.146;2024-03-02T09:42:36;22.75;;;12.25;;
69569;SDS011;56781;42.292;23.146;2024-03-02T09:45:05;22.50;;;10.82;;
69569;SDS011;56781;42.292;23.146;2024-03-02T09:47:36;33.23;;;15.47;;
69569;SDS011;56781;42.292;23.146;2024-03-02T09:50:05;27.95;;;13.07;;
69569;SDS011;56781;42.292;23.146;2024-03-02T09:52:34;22.92;;;10.07;;
69569;SDS011;56781;42.292;23.146;2024-03-02T09:55:04;20.75;;;9.88;;
69569;SDS011;56781;42.292;23.146;2024-03-02T09:57:33;21.80;;;10.05;;
69569;SDS011;56781;42.292;23.146;2024-03-02T10:00:05;17.93;;;9.57;;
69569;SDS011;56781;42.292;23.146;2024-03-02T10:02:36;22.85;;;11.40;;
69569;SDS011;56781;42.292;23.146;2024-03-02T10:05:04;24.45;;;11.25;;
69569;SDS011;56781;42.292;23.146;2024-03-02T10:07:33;21.98;;;11.18;;
69569;SDS011;56781;42.292;23.146;2024-03-02T10:10:12;23.92;;;12.25;;
69569;SDS011;56781;42.292;23.146;2024-03-02T10:12:41;34.27;;;15.43;;
69569;SDS011;56781;42.292;23.146;2024-03-02T10:15:09;21.38;;;10.82;;
69569;SDS011;56781;42.292;23.146;2024-03-02T10:17:39;20.63;;;9.63;;
69569;SDS011;56781;42.292;23.146;2024-03-02T10:20:23;18.42;;;9.13;;
69569;SDS011;56781;42.292;23.146;2024-03-02T10:22:52;18.75;;;9.13;;
69569;SDS011;56781;42.292;23.146;2024-03-02T10:25:30;29.43;;;13.50;;
69569;SDS011;56781;42.292;23.146;2024-03-02T10:28:03;20.02;;;10.30;;
69569;SDS011;56781;42.292;23.146;2024-03-02T10:30:33;19.98;;;10.15;;
69569;SDS011;56781;42.292;23.146;2024-03-02T10:33:04;23.45;;;13.05;;
69569;SDS011;56781;42.292;23.146;2024-03-02T10:35:34;22.60;;;11.30;;
69569;SDS011;56781;42.292;23.146;2024-03-02T10:38:04;27.40;;;12.43;;
69569;SDS011;56781;42.292;23.146;2024-03-02T10:40:34;24.77;;;11.82;;
69569;SDS011;56781;42.292;23.146;2024-03-02T10:43:02;27.00;;;12.73;;
69569;SDS011;56781;42.292;23.146;2024-03-02T10:45:32;17.10;;;8.93;;
69569;SDS011;56781;42.292;23.146;2024-03-02T10:48:01;24.05;;;11.13;;
69569;SDS011;56781;42.292;23.146;2024-03-02T10:50:33;16.53;;;8.53;;
69569;SDS011;56781;42.292;23.146;2024-03-02T10:53:02;18.92;;;8.85;;
69569;SDS011;56781;42.292;23.146;2024-03-02T10:55:32;23.02;;;10.85;;
69569;SDS011;56781;42.292;23.146;2024-03-02T10:58:01;15.32;;;7.93;;
69569;SDS011;56781;42.292;23.146;2024-03-02T11:00:34;16.60;;;8.30;;
69569;SDS011;56781;42.292;23.146;2024-03-02T11:03:06;16.10;;;8.73;;
69569;SDS011;56781;42.292;23.146;2024-03-02T11:05:38;15.93;;;8.90;;
69569;SDS011;56781;42.292;23.146;2024-03-02T11:08:12;16.98;;;9.00;;
69569;SDS011;56781;42.292;23.146;2024-03-02T11:10:42;16.42;;;8.25;;
69569;SDS011;56781;42.292;23.146;2024-03-02T11:13:18;34.92;;;15.00;;
69569;SDS011;56781;42.292;23.146;2024-03-02T11:15:51;26.07;;;13.50;;
69569;SDS011;56781;42.292;23.146;2024-03-02T11:18:23;18.15;;;9.55;;
69569;SDS011;56781;42.292;23.146;2024-03-02T11:20:54;11.48;;;5.72;;
69569;SDS011;56781;42.292;23.146;2024-03-02T11:23:31;28.63;;;13.38;;
69569;SDS011;56781;42.292;23.146;2024-03-02T11:28:51;20.50;;;9.40;;
69569;SDS011;56781;42.292;23.146;2024-03-02T11:31:19;31.88;;;22.85;;
69569;SDS011;56781;42.292;23.146;2024-03-02T11:33:47;17.30;;;9.60;;
69569;SDS011;56781;42.292;23.146;2024-03-02T11:36:18;11.40;;;6.28;;
69569;SDS011;56781;42.292;23.146;2024-03-02T11:38:46;12.95;;;6.20;;
69569;SDS011;56781;42.292;23.146;2024-03-02T11:41:20;10.33;;;4.70;;
69569;SDS011;56781;42.292;23.146;2024-03-02T11:43:48;10.18;;;5.50;;
69569;SDS011;56781;42.292;23.146;2024-03-02T11:46:17;9.93;;;5.22;;
69569;SDS011;56781;42.292;23.146;2024-03-02T11:48:50;9.57;;;5.15;;
69569;SDS011;56781;42.292;23.146;2024-03-02T11:51:20;10.98;;;5.32;;
69569;SDS011;56781;42.292;23.146;2024-03-02T11:53:50;8.20;;;4.50;;
69569;SDS011;56781;42.292;23.146;2024-03-02T11:56:22;8.20;;;4.80;;
69569;SDS011;56781;42.292;23.146;2024-03-02T11:58:52;9.30;;;4.97;;
69569;SDS011;56781;42.292;23.146;2024-03-02T12:01:22;8.20;;;5.25;;
69569;SDS011;56781;42.292;23.146;2024-03-02T12:03:50;10.05;;;5.40;;
69569;SDS011;56781;42.292;23.146;2024-03-02T12:06:23;10.73;;;5.53;;
69569;SDS011;56781;42.292;23.146;2024-03-02T12:08:52;25.60;;;9.60;;
69569;SDS011;56781;42.292;23.146;2024-03-02T12:11:21;22.02;;;8.75;;
69569;SDS011;56781;42.292;23.146;2024-03-02T12:13:53;22.70;;;9.55;;
69569;SDS011;56781;42.292;23.146;2024-03-02T12:16:23;14.32;;;7.07;;
69569;SDS011;56781;42.292;23.146;2024-03-02T12:18:52;21.37;;;8.30;;
69569;SDS011;56781;42.292;23.146;2024-03-02T12:21:20;18.60;;;8.35;;
69569;SDS011;56781;42.292;23.146;2024-03-02T12:23:50;14.30;;;6.90;;
69569;SDS011;56781;42.292;23.146;2024-03-02T12:26:19;54.88;;;15.10;;
69569;SDS011;56781;42.292;23.146;2024-03-02T12:28:48;29.17;;;9.45;;
69569;SDS011;56781;42.292;23.146;2024-03-02T12:31:16;12.37;;;5.93;;
69569;SDS011;56781;42.292;23.146;2024-03-02T12:33:45;12.95;;;7.15;;
69569;SDS011;56781;42.292;23.146;2024-03-02T12:36:14;10.57;;;6.35;;
69569;SDS011;56781;42.292;23.146;2024-03-02T12:38:43;12.07;;;5.93;;
69569;SDS011;56781;42.292;23.146;2024-03-02T12:41:16;9.85;;;5.53;;
69569;SDS011;56781;42.292;23.146;2024-03-02T12:43:44;9.00;;;4.63;;
69569;SDS011;56781;42.292;23.146;2024-03-02T12:46:12;13.02;;;6.78;;
69569;SDS011;56781;42.292;23.146;2024-03-02T12:48:42;17.98;;;8.23;;
69569;SDS011;56781;42.292;23.146;2024-03-02T12:51:11;14.10;;;6.93;;
69569;SDS011;56781;42.292;23.146;2024-03-02T12:53:39;11.45;;;6.40;;
69569;SDS011;56781;42.292;23.146;2024-03-02T12:56:07;12.83;;;7.00;;
69569;SDS011;56781;42.292;23.146;2024-03-02T12:58:40;11.45;;;5.90;;
69569;SDS011;56781;42.292;23.146;2024-03-02T13:01:08;13.43;;;7.00;;
69569;SDS011;56781;42.292;23.146;2024-03-02T13:03:38;11.57;;;6.25;;
69569;SDS011;56781;42.292;23.146;2024-03-02T13:06:06;15.15;;;7.32;;
69569;SDS011;56781;42.292;23.146;2024-03-02T13:08:36;8.73;;;5.03;;
69569;SDS011;56781;42.292;23.146;2024-03-02T13:11:04;9.93;;;5.00;;
69569;SDS011;56781;42.292;23.146;2024-03-02T13:13:33;12.25;;;6.57;;
69569;SDS011;56781;42.292;23.146;2024-03-02T13:16:04;14.25;;;6.88;;
69569;SDS011;56781;42.292;23.146;2024-03-02T13:18:37;11.00;;;5.80;;
69569;SDS011;56781;42.292;23.146;2024-03-02T13:21:06;11.60;;;6.57;;
69569;SDS011;56781;42.292;23.146;2024-03-02T13:23:35;15.95;;;7.53;;
69569;SDS011;56781;42.292;23.146;2024-03-02T13:26:04;14.18;;;7.38;;
69569;SDS011;56781;42.292;23.146;2024-03-02T13:28:34;14.52;;;7.90;;
69569;SDS011;56781;42.292;23.146;2024-03-02T13:31:04;13.98;;;8.05;;
69569;SDS011;56781;42.292;23.146;2024-03-02T13:33:33;21.87;;;9.33;;
69569;SDS011;56781;42.292;23.146;2024-03-02T13:36:02;19.48;;;9.50;;
69569;SDS011;56781;42.292;23.146;2024-03-02T13:38:31;17.95;;;9.60;;
69569;SDS011;56781;42.292;23.146;2024-03-02T13:40:59;19.67;;;9.75;;
69569;SDS011;56781;42.292;23.146;2024-03-02T13:43:27;21.23;;;10.05;;
69569;SDS011;56781;42.292;23.146;2024-03-02T13:45:58;18.63;;;9.20;;
69569;SDS011;56781;42.292;23.146;2024-03-02T13:48:29;17.40;;;8.25;;
69569;SDS011;56781;42.292;23.146;2024-03-02T13:50:57;16.13;;;8.43;;
69569;SDS011;56781;42.292;23.146;2024-03-02T13:53:26;29.85;;;11.82;;
69569;SDS011;56781;42.292;23.146;2024-03-02T13:55:55;22.38;;;10.75;;
69569;SDS011;56781;42.292;23.146;2024-03-02T13:58:23;14.67;;;7.30;;
69569;SDS011;56781;42.292;23.146;2024-03-02T14:00:52;20.20;;;9.43;;
69569;SDS011;56781;42.292;23.146;2024-03-02T14:03:20;23.13;;;11.52;;
69569;SDS011;56781;42.292;23.146;2024-03-02T14:05:51;13.98;;;7.88;;
69569;SDS011;56781;42.292;23.146;2024-03-02T14:08:19;15.75;;;8.10;;
69569;SDS011;56781;42.292;23.146;2024-03-02T14:10:48;20.43;;;9.00;;
69569;SDS011;56781;42.292;23.146;2024-03-02T14:13:16;27.77;;;11.55;;
69569;SDS011;56781;42.292;23.146;2024-03-02T14:15:45;16.05;;;7.22;;
69569;SDS011;56781;42.292;23.146;2024-03-02T14:18:13;22.52;;;10.32;;
69569;SDS011;56781;42.292;23.146;2024-03-02T14:20:42;76.05;;;22.50;;
69569;SDS011;56781;42.292;23.146;2024-03-02T14:23:13;22.00;;;9.70;;
69569;SDS011;56781;42.292;23.146;2024-03-02T14:25:42;13.63;;;8.23;;
69569;SDS011;56781;42.292;23.146;2024-03-02T14:28:10;15.07;;;8.02;;
69569;SDS011;56781;42.292;23.146;2024-03-02T14:30:59;23.83;;;10.85;;